createdAt,value
2023-02-17T00:00:25.140Z,12.23
2023-02-17T00:02:56.361Z,11.97
2023-02-17T00:05:23.976Z,11.51
2023-02-17T00:07:51.583Z,12.03
2023-02-17T00:10:19.216Z,12.48
2023-02-17T00:12:48.288Z,12.55
2023-02-17T00:15:15.912Z,12.38
2023-02-17T00:17:43.588Z,12.16
2023-02-17T00:20:11.838Z,10.66
2023-02-17T00:22:39.533Z,12.07
2023-02-17T00:25:07.492Z,11.69
2023-02-17T00:27:35.124Z,11.67
2023-02-17T00:30:04.473Z,11.20
2023-02-17T00:32:32.144Z,11.42
2023-02-17T00:34:59.779Z,11.54
2023-02-17T00:37:27.502Z,10.85
2023-02-17T00:39:56.026Z,12.42
2023-02-17T00:42:23.666Z,11.17
2023-02-17T00:44:51.329Z,12.53
2023-02-17T00:47:22.509Z,12.94
2023-02-17T00:49:50.204Z,11.97
2023-02-17T00:52:17.797Z,11.92
2023-02-17T00:54:45.494Z,11.52
2023-02-17T00:57:13.139Z,12.12
2023-02-17T00:59:41.388Z,11.80
2023-02-17T01:02:09.033Z,11.81
2023-02-17T01:04:38.565Z,10.61
2023-02-17T01:07:06.943Z,11.92
2023-02-17T01:09:34.604Z,12.43
2023-02-17T01:12:03.472Z,11.82
2023-02-17T01:14:32.541Z,11.54
2023-02-17T01:17:00.272Z,12.31
2023-02-17T01:19:29.481Z,10.87
2023-02-17T01:21:58.560Z,10.99
2023-02-17T01:24:26.245Z,11.47
2023-02-17T01:26:55.799Z,11.57
2023-02-17T01:29:25.871Z,10.43
2023-02-17T01:31:53.613Z,12.29
2023-02-17T01:34:23.453Z,11.44
2023-02-17T01:36:51.199Z,11.17
2023-02-17T01:39:20.247Z,11.50
2023-02-17T01:41:47.964Z,11.87
2023-02-17T01:44:16.365Z,12.34
2023-02-17T01:46:44.656Z,12.24
2023-02-17T01:49:16.917Z,11.34
2023-02-17T01:51:44.637Z,11.42
2023-02-17T01:54:13.413Z,11.56
2023-02-17T01:56:43.223Z,12.79
2023-02-17T01:59:11.818Z,12.57
2023-02-17T02:01:39.633Z,10.60
2023-02-17T02:04:07.419Z,12.47
2023-02-17T02:06:35.468Z,11.60
2023-02-17T02:09:04.482Z,10.82
2023-02-17T02:11:32.324Z,10.33
2023-02-17T02:14:01.351Z,10.78
2023-02-17T02:16:30.635Z,11.56
2023-02-17T02:18:59.766Z,11.86
2023-02-17T02:21:39.265Z,11.14
2023-02-17T02:24:13.321Z,11.47
2023-02-17T02:26:46.512Z,11.78
2023-02-17T02:29:19.359Z,10.68
2023-02-17T02:31:47.413Z,11.24
2023-02-17T02:34:16.917Z,10.76
2023-02-17T02:36:44.808Z,11.63
2023-02-17T02:39:15.498Z,12.30
2023-02-17T02:41:43.782Z,11.05
2023-02-17T02:44:14.563Z,11.44
2023-02-17T02:46:42.194Z,11.47
2023-02-17T02:49:13.201Z,10.98
2023-02-17T02:51:48.217Z,11.49
2023-02-17T02:54:20.710Z,10.48
2023-02-17T02:56:52.504Z,12.07
2023-02-17T02:59:24.655Z,11.54
2023-02-17T03:01:53.394Z,11.15
2023-02-17T03:04:26.545Z,12.89
2023-02-17T03:06:56.361Z,11.60
2023-02-17T03:09:24.598Z,11.23
2023-02-17T03:11:52.876Z,11.46
2023-02-17T03:14:22.114Z,12.51
2023-02-17T03:16:50.438Z,12.49
2023-02-17T03:19:19.951Z,13.19
2023-02-17T03:21:49.786Z,12.39
2023-02-17T03:24:19.011Z,12.25
2023-02-17T03:26:46.765Z,10.68
2023-02-17T03:29:14.499Z,11.64
2023-02-17T03:31:42.336Z,11.44
2023-02-17T03:34:10.086Z,11.39
2023-02-17T03:36:37.738Z,10.45
2023-02-17T03:39:05.386Z,11.19
2023-02-17T03:41:34.392Z,11.30
2023-02-17T03:44:03.296Z,10.25
2023-02-17T03:46:31.120Z,10.33
2023-02-17T03:48:58.772Z,10.98
2023-02-17T03:51:26.694Z,11.20
2023-02-17T03:53:54.330Z,11.82
2023-02-17T03:56:21.955Z,10.64
2023-02-17T03:58:50.962Z,12.48
2023-02-17T04:01:18.689Z,11.32
2023-02-17T04:03:46.398Z,12.05
2023-02-17T04:06:14.006Z,10.28
2023-02-17T04:08:41.719Z,11.37
2023-02-17T04:11:09.754Z,10.05
2023-02-17T04:13:37.511Z,11.70
2023-02-17T04:16:07.992Z,11.24
2023-02-17T04:18:36.087Z,11.03
2023-02-17T04:21:03.796Z,10.77
2023-02-17T04:23:31.451Z,10.78
2023-02-17T04:25:59.054Z,10.13
2023-02-17T04:28:27.216Z,9.78
2023-02-17T04:30:54.917Z,11.01
2023-02-17T04:33:23.965Z,9.76
2023-02-17T04:35:51.594Z,11.87
2023-02-17T04:38:19.216Z,11.05
2023-02-17T04:40:46.943Z,11.62
2023-02-17T04:43:14.582Z,10.77
2023-02-17T04:45:42.312Z,12.14
2023-02-17T04:48:09.922Z,11.06
2023-02-17T04:50:41.991Z,10.20
2023-02-17T04:53:09.829Z,10.23
2023-02-17T04:55:37.456Z,12.03
2023-02-17T04:58:05.276Z,11.53
2023-02-17T05:00:32.893Z,11.76
2023-02-17T05:03:00.536Z,11.80
2023-02-17T05:05:28.216Z,10.81
2023-02-17T05:07:57.231Z,11.48
2023-02-17T05:10:24.937Z,10.83
2023-02-17T05:12:52.614Z,11.05
2023-02-17T05:15:21.713Z,10.32
2023-02-17T05:17:49.413Z,11.35
2023-02-17T05:20:17.289Z,11.34
2023-02-17T05:22:44.947Z,11.22
2023-02-17T05:25:13.963Z,10.95
2023-02-17T05:27:41.579Z,10.80
2023-02-17T05:30:09.468Z,11.18
2023-02-17T05:32:37.130Z,11.22
2023-02-17T05:35:04.869Z,12.68
2023-02-17T05:37:32.483Z,11.00
2023-02-17T05:40:00.112Z,10.46
2023-02-17T05:42:29.125Z,12.06
2023-02-17T05:44:56.745Z,11.59
2023-02-17T05:47:26.143Z,11.03
2023-02-17T05:49:55.133Z,11.51
2023-02-17T05:52:22.766Z,11.78
2023-02-17T05:54:50.354Z,12.06
2023-02-17T05:57:18.063Z,12.45
2023-02-17T05:59:47.124Z,11.90
2023-02-17T06:02:14.781Z,11.50
2023-02-17T06:04:42.419Z,12.39
2023-02-17T06:07:10.099Z,11.94
2023-02-17T06:09:37.723Z,12.34
2023-02-17T06:12:05.601Z,11.76
2023-02-17T06:14:33.294Z,11.60
2023-02-17T06:17:04.019Z,11.75
2023-02-17T06:19:31.714Z,11.65
2023-02-17T06:21:59.348Z,11.80
2023-02-17T06:24:27.061Z,12.11
2023-02-17T06:26:54.698Z,12.36
2023-02-17T06:29:22.371Z,11.17
2023-02-17T06:31:50.073Z,12.06
2023-02-17T06:34:19.145Z,11.53
2023-02-17T06:36:46.758Z,12.15
2023-02-17T06:39:14.500Z,11.13
2023-02-17T06:41:42.746Z,11.99
2023-02-17T06:44:10.608Z,12.27
2023-02-17T06:46:38.225Z,12.52
2023-02-17T06:49:06.150Z,12.03
2023-02-17T06:51:35.136Z,11.45
2023-02-17T06:54:05.435Z,11.94
2023-02-17T06:56:33.178Z,12.19
2023-02-17T06:59:02.048Z,11.97
2023-02-17T07:01:29.810Z,12.80
2023-02-17T07:03:57.672Z,12.05
2023-02-17T07:06:25.570Z,11.89
2023-02-17T07:08:54.547Z,13.35
2023-02-17T07:11:22.312Z,12.79
2023-02-17T07:13:50.080Z,12.36
2023-02-17T07:16:17.972Z,11.76
2023-02-17T07:18:45.622Z,12.28
2023-02-17T07:21:13.277Z,12.43
2023-02-17T07:23:40.948Z,13.11
2023-02-17T07:26:12.454Z,12.67
2023-02-17T07:28:40.482Z,13.33
2023-02-17T07:31:08.433Z,12.40
2023-02-17T07:33:36.359Z,12.09
2023-02-17T07:36:07.164Z,12.25
2023-02-17T07:38:35.173Z,12.37
2023-02-17T07:41:05.318Z,12.17
2023-02-17T07:43:34.357Z,12.82
2023-02-17T07:46:04.148Z,12.14
2023-02-17T07:48:32.061Z,12.60
2023-02-17T07:51:04.933Z,12.81
2023-02-17T07:53:32.631Z,11.88
2023-02-17T07:56:00.296Z,11.71
2023-02-17T07:58:27.977Z,11.91
2023-02-17T08:00:57.024Z,12.35
2023-02-17T08:03:24.653Z,12.78
2023-02-17T08:05:53.041Z,12.19
2023-02-17T08:08:38.511Z,13.00
2023-02-17T08:11:24.001Z,12.82
2023-02-17T08:13:51.639Z,12.63
2023-02-17T08:16:20.708Z,12.89
2023-02-17T08:18:48.507Z,13.17
2023-02-17T08:21:16.124Z,13.15
2023-02-17T08:23:45.382Z,14.80
2023-02-17T08:26:15.658Z,12.51
2023-02-17T08:28:43.445Z,13.98
2023-02-17T08:31:16.076Z,13.54
2023-02-17T08:33:45.212Z,12.71
2023-02-17T08:36:12.927Z,12.06
2023-02-17T08:38:40.791Z,13.56
2023-02-17T08:41:17.951Z,11.80
2023-02-17T08:43:45.717Z,12.75
2023-02-17T08:46:13.801Z,11.79
2023-02-17T08:48:41.708Z,12.94
2023-02-17T08:51:12.890Z,12.91
2023-02-17T08:53:40.682Z,12.80
2023-02-17T08:56:08.683Z,11.95
2023-02-17T08:58:36.605Z,12.34
2023-02-17T09:01:04.583Z,11.71
2023-02-17T09:03:34.213Z,11.73
2023-02-17T09:06:02.014Z,12.23
2023-02-17T09:08:31.082Z,12.88
2023-02-17T09:10:58.964Z,12.07
2023-02-17T09:13:27.350Z,13.60
2023-02-17T09:15:55.329Z,12.79
2023-02-17T09:18:23.336Z,12.29
2023-02-17T09:20:50.998Z,13.24
2023-02-17T09:23:19.004Z,12.82
2023-02-17T09:25:48.135Z,13.50
2023-02-17T09:28:15.782Z,12.86
2023-02-17T09:30:45.909Z,13.31
2023-02-17T09:33:13.644Z,12.27
2023-02-17T09:35:41.390Z,12.53
2023-02-17T09:38:10.249Z,12.65
2023-02-17T09:40:39.683Z,12.76
2023-02-17T09:43:09.613Z,12.02
2023-02-17T09:45:37.336Z,12.90
2023-02-17T09:48:06.720Z,12.15
2023-02-17T09:50:36.908Z,11.73
2023-02-17T09:53:04.914Z,12.02
2023-02-17T09:55:34.539Z,13.84
2023-02-17T09:58:03.378Z,12.69
2023-02-17T10:00:34.034Z,13.14
2023-02-17T10:03:03.268Z,12.35
2023-02-17T10:05:31.448Z,12.20
2023-02-17T10:08:01.440Z,13.37
2023-02-17T10:10:29.498Z,12.92
2023-02-17T10:12:57.642Z,12.92
2023-02-17T10:15:26.126Z,12.65
2023-02-17T10:17:57.198Z,12.57
2023-02-17T10:20:25.595Z,13.62
2023-02-17T10:22:54.196Z,12.08
2023-02-17T10:25:23.713Z,14.34
2023-02-17T10:27:52.810Z,12.75
2023-02-17T10:30:23.267Z,12.22
2023-02-17T10:32:53.972Z,12.59
2023-02-17T10:35:24.561Z,12.20
2023-02-17T10:37:54.741Z,12.42
2023-02-17T10:40:23.144Z,12.32
2023-02-17T10:42:51.146Z,11.94
2023-02-17T10:45:22.026Z,13.05
2023-02-17T10:47:49.772Z,12.36
2023-02-17T10:50:19.580Z,12.20
2023-02-17T10:52:48.886Z,12.99
2023-02-17T10:55:23.167Z,12.45
2023-02-17T10:57:52.891Z,12.82
2023-02-17T11:00:20.814Z,13.43
2023-02-17T11:02:48.928Z,12.92
2023-02-17T11:05:24.207Z,13.65
2023-02-17T11:07:57.421Z,13.08
2023-02-17T11:10:27.260Z,11.80
2023-02-17T11:12:56.077Z,12.74
2023-02-17T11:15:24.941Z,12.49
2023-02-17T11:17:52.606Z,12.74
2023-02-17T11:20:31.085Z,12.98
2023-02-17T11:23:04.997Z,12.71
2023-02-17T11:25:33.291Z,13.10
2023-02-17T11:28:27.023Z,14.03
2023-02-17T11:30:55.370Z,15.55
2023-02-17T11:33:24.454Z,15.45
2023-02-17T11:35:53.706Z,14.73
2023-02-17T11:38:22.022Z,15.40
2023-02-17T11:40:53.626Z,15.52
2023-02-17T11:43:21.250Z,15.34
2023-02-17T11:45:53.341Z,16.96
2023-02-17T11:48:32.055Z,16.75
2023-02-17T11:51:00.271Z,16.44
2023-02-17T11:53:30.936Z,17.46
2023-02-17T11:56:02.038Z,16.27
2023-02-17T11:58:32.375Z,16.54
2023-02-17T12:01:03.869Z,15.89
2023-02-17T12:03:41.927Z,16.80
2023-02-17T12:06:10.082Z,15.55
2023-02-17T12:08:39.633Z,15.90
2023-02-17T12:11:09.936Z,15.52
2023-02-17T12:13:40.978Z,15.49
2023-02-17T12:16:14.088Z,16.01
2023-02-17T12:18:44.273Z,16.20
2023-02-17T12:21:13.478Z,18.19
2023-02-17T12:23:59.030Z,16.97
2023-02-17T12:26:28.773Z,16.44
2023-02-17T12:29:00.178Z,16.80
2023-02-17T12:31:34.722Z,17.68
2023-02-17T12:34:03.733Z,16.50
2023-02-17T12:36:31.984Z,18.10
2023-02-17T12:39:00.680Z,18.23
2023-02-17T12:41:28.707Z,17.17
2023-02-17T12:43:56.849Z,18.34
2023-02-17T12:46:25.416Z,17.65
2023-02-17T12:48:55.038Z,17.14
2023-02-17T12:51:23.707Z,18.25
2023-02-17T12:53:52.042Z,18.98
2023-02-17T12:56:39.009Z,18.80
2023-02-17T12:59:07.323Z,18.05
2023-02-17T13:01:34.991Z,17.47
2023-02-17T13:04:05.072Z,17.78
2023-02-17T13:06:33.834Z,19.62
2023-02-17T13:09:02.634Z,17.88
2023-02-17T13:11:31.290Z,18.65
2023-02-17T13:13:58.975Z,17.38
2023-02-17T13:16:28.469Z,18.96
2023-02-17T13:18:59.156Z,19.07
2023-02-17T13:21:32.999Z,17.79
2023-02-17T13:24:02.385Z,19.12
2023-02-17T13:26:31.005Z,17.87
2023-02-17T13:29:09.438Z,18.92
2023-02-17T13:31:45.929Z,18.33
2023-02-17T13:34:24.024Z,17.74
2023-02-17T13:36:53.062Z,17.73
2023-02-17T13:39:34.401Z,17.02
2023-02-17T13:42:02.716Z,17.26
2023-02-17T13:44:30.968Z,17.80
2023-02-17T13:47:00.228Z,18.26
2023-02-17T13:49:28.463Z,19.02
2023-02-17T13:51:57.571Z,19.78
2023-02-17T13:54:25.226Z,18.15
2023-02-17T13:56:53.408Z,17.43
2023-02-17T13:59:25.211Z,18.47
2023-02-17T14:01:52.887Z,17.85
2023-02-17T14:04:21.937Z,18.91
2023-02-17T14:06:50.254Z,20.13
2023-02-17T14:09:26.374Z,18.09
2023-02-17T14:11:54.807Z,17.80
2023-02-17T14:14:23.132Z,19.35
2023-02-17T14:16:57.403Z,18.89
2023-02-17T14:19:25.066Z,19.67
2023-02-17T14:21:59.832Z,18.23
2023-02-17T14:24:29.391Z,18.87
2023-02-17T14:26:58.183Z,18.75
2023-02-17T14:29:25.838Z,17.63
2023-02-17T14:31:53.988Z,17.58
2023-02-17T14:34:28.660Z,17.86
2023-02-17T14:36:56.463Z,19.30
2023-02-17T14:39:24.090Z,18.34
2023-02-17T14:41:53.095Z,17.04
2023-02-17T14:44:20.738Z,18.21
2023-02-17T14:46:48.434Z,17.79
2023-02-17T14:49:16.124Z,17.33
2023-02-17T14:51:43.795Z,16.98
2023-02-17T14:54:13.144Z,16.17
2023-02-17T14:56:41.874Z,15.48
2023-02-17T14:59:11.325Z,15.53
2023-02-17T15:01:39.069Z,14.92
2023-02-17T15:04:06.889Z,14.51
2023-02-17T15:06:36.146Z,13.64
2023-02-17T15:09:03.760Z,13.74
2023-02-17T15:11:31.745Z,14.61
2023-02-17T15:13:59.361Z,15.15
2023-02-17T15:16:28.403Z,14.73
2023-02-17T15:18:56.062Z,13.85
2023-02-17T15:21:26.481Z,14.28
2023-02-17T15:23:54.370Z,16.06
2023-02-17T15:26:22.016Z,14.29
2023-02-17T15:28:49.669Z,16.11
2023-02-17T15:31:17.574Z,15.13
2023-02-17T15:33:46.622Z,14.96
2023-02-17T15:36:14.966Z,14.46
2023-02-17T15:38:42.751Z,13.98
2023-02-17T15:41:14.568Z,15.33
2023-02-17T15:43:42.246Z,14.38
2023-02-17T15:46:13.553Z,13.96
2023-02-17T15:48:41.379Z,14.85
2023-02-17T15:51:12.144Z,13.97
2023-02-17T15:53:39.793Z,13.94
2023-02-17T15:56:10.919Z,15.09
2023-02-17T15:58:38.584Z,14.09
2023-02-17T16:01:06.442Z,14.24
2023-02-17T16:03:34.140Z,14.33
2023-02-17T16:06:01.799Z,13.34
2023-02-17T16:08:30.814Z,15.01
2023-02-17T16:10:58.464Z,14.10
2023-02-17T16:13:26.117Z,14.54
2023-02-17T16:15:53.757Z,14.40
2023-02-17T16:18:22.074Z,14.69
2023-02-17T16:20:49.775Z,14.50
2023-02-17T16:23:17.581Z,14.17
2023-02-17T16:25:47.072Z,15.79
2023-02-17T16:28:15.836Z,15.01
2023-02-17T16:30:44.405Z,13.83
2023-02-17T16:33:12.004Z,15.18
2023-02-17T16:35:39.754Z,15.52
2023-02-17T16:38:07.934Z,13.46
2023-02-17T16:40:36.358Z,14.17
2023-02-17T16:43:05.599Z,14.50
2023-02-17T16:45:33.615Z,14.84
2023-02-17T16:48:01.705Z,14.08
2023-02-17T16:50:30.305Z,13.84
2023-02-17T16:52:58.619Z,14.59
2023-02-17T16:55:27.677Z,13.77
2023-02-17T16:57:55.361Z,13.78
2023-02-17T17:00:24.974Z,13.94
2023-02-17T17:02:52.725Z,14.49
2023-02-17T17:05:20.593Z,14.28
2023-02-17T17:07:48.338Z,14.45
2023-02-17T17:10:17.553Z,14.83
2023-02-17T17:12:45.312Z,13.16
2023-02-17T17:15:12.993Z,13.07
2023-02-17T17:17:42.751Z,11.47
2023-02-17T17:20:14.533Z,11.61
2023-02-17T17:22:42.301Z,11.94
2023-02-17T17:25:09.935Z,11.87
2023-02-17T17:27:37.971Z,12.98
2023-02-17T17:30:06.233Z,13.27
2023-02-17T17:32:33.949Z,12.84
2023-02-17T17:35:02.890Z,13.78
2023-02-17T17:37:30.617Z,13.87
2023-02-17T17:39:58.226Z,13.00
2023-02-17T17:42:25.884Z,13.44
2023-02-17T17:44:53.540Z,14.67
2023-02-17T17:47:29.402Z,15.23
2023-02-17T17:49:58.003Z,14.73
2023-02-17T17:52:27.043Z,14.63
2023-02-17T17:54:54.680Z,15.65
2023-02-17T17:57:22.526Z,15.57
2023-02-17T17:59:50.156Z,15.81
2023-02-17T18:02:17.859Z,15.91
2023-02-17T18:04:45.576Z,15.57
2023-02-17T18:07:13.246Z,15.79
2023-02-17T18:09:42.350Z,15.98
2023-02-17T18:12:10.756Z,16.12
2023-02-17T18:14:39.202Z,16.03
2023-02-17T18:17:07.007Z,15.39
2023-02-17T18:19:34.635Z,16.23
2023-02-17T18:22:02.294Z,15.37
2023-02-17T18:24:30.001Z,16.21
2023-02-17T18:26:58.983Z,16.17
2023-02-17T18:29:32.923Z,16.69
2023-02-17T18:32:00.663Z,17.50
2023-02-17T18:34:28.381Z,14.74
2023-02-17T18:36:56.015Z,12.18
2023-02-17T18:39:23.651Z,12.35
2023-02-17T18:41:51.279Z,11.66
2023-02-17T18:44:24.293Z,13.01
2023-02-17T18:46:51.977Z,13.84
2023-02-17T18:49:19.611Z,14.47
2023-02-17T18:51:47.535Z,13.91
2023-02-17T18:54:15.274Z,14.90
2023-02-17T18:56:42.987Z,14.73
2023-02-17T18:59:10.702Z,15.12
2023-02-17T19:01:40.955Z,14.96
2023-02-17T19:04:09.612Z,15.73
2023-02-17T19:06:37.275Z,14.85
2023-02-17T19:09:05.296Z,15.08
2023-02-17T19:11:33.472Z,15.36
2023-02-17T19:14:01.316Z,14.96
2023-02-17T19:16:29.848Z,14.56
2023-02-17T19:18:58.914Z,14.68
2023-02-17T19:21:26.747Z,14.21
2023-02-17T19:23:54.529Z,14.54
2023-02-17T19:26:22.572Z,13.72
2023-02-17T19:28:50.437Z,13.71
2023-02-17T19:31:19.476Z,13.97
2023-02-17T19:33:47.467Z,13.26
2023-02-17T19:36:17.258Z,13.35
2023-02-17T19:38:47.736Z,13.04
2023-02-17T19:41:15.784Z,12.74
2023-02-17T19:43:43.488Z,13.95
2023-02-17T19:46:11.522Z,13.71
2023-02-17T19:48:39.231Z,15.32
2023-02-17T19:51:07.558Z,13.47
2023-02-17T19:53:36.633Z,14.06
2023-02-17T19:56:11.343Z,13.59
2023-02-17T19:58:39.881Z,13.92
2023-02-17T20:01:08.359Z,13.56
2023-02-17T20:03:36.064Z,13.39
2023-02-17T20:06:05.062Z,14.52
2023-02-17T20:08:33.080Z,14.30
2023-02-17T20:11:06.227Z,13.33
2023-02-17T20:13:45.241Z,13.89
2023-02-17T20:16:14.930Z,13.75
2023-02-17T20:18:44.555Z,14.05
2023-02-17T20:21:12.901Z,13.98
2023-02-17T20:23:40.710Z,13.89
2023-02-17T20:26:33.875Z,13.30
2023-02-17T20:29:03.030Z,13.53
2023-02-17T20:31:30.980Z,13.46
2023-02-17T20:33:58.671Z,12.85
2023-02-17T20:36:32.020Z,13.82
2023-02-17T20:39:00.334Z,13.74
2023-02-17T20:41:28.143Z,14.68
2023-02-17T20:43:55.895Z,13.39
2023-02-17T20:46:26.493Z,13.69
2023-02-17T20:48:54.470Z,14.17
2023-02-17T20:51:22.193Z,14.58
2023-02-17T20:53:49.935Z,14.94
2023-02-17T20:56:18.965Z,14.85
2023-02-17T20:58:47.211Z,14.10
2023-02-17T21:01:15.099Z,14.76
2023-02-17T21:03:44.206Z,13.61
2023-02-17T21:06:17.367Z,13.38
2023-02-17T21:08:45.737Z,14.93
2023-02-17T21:11:13.350Z,13.78
2023-02-17T21:13:41.005Z,12.97
2023-02-17T21:16:09.060Z,12.88
2023-02-17T21:18:36.978Z,14.13
2023-02-17T21:21:06.208Z,13.68
2023-02-17T21:23:34.511Z,13.63
2023-02-17T21:26:02.220Z,13.35
2023-02-17T21:28:29.929Z,13.64
2023-02-17T21:30:57.754Z,13.66
2023-02-17T21:33:25.601Z,12.89
2023-02-17T21:35:53.545Z,13.15
2023-02-17T21:38:22.746Z,13.05
2023-02-17T21:40:50.850Z,13.71
2023-02-17T21:43:36.294Z,14.10
2023-02-17T21:46:07.505Z,13.63
2023-02-17T21:48:35.341Z,12.81
2023-02-17T21:51:06.614Z,13.84
2023-02-17T21:53:35.692Z,13.10
2023-02-17T21:56:03.576Z,14.08
2023-02-17T21:58:31.506Z,13.50
2023-02-17T22:00:59.281Z,12.74
2023-02-17T22:03:27.096Z,12.77
2023-02-17T22:05:54.902Z,12.57
2023-02-17T22:08:23.837Z,12.48
2023-02-17T22:10:53.065Z,12.79
2023-02-17T22:17:14.993Z,12.24
2023-02-17T22:19:42.645Z,13.49
2023-02-17T22:22:10.350Z,12.77
2023-02-17T22:24:38.008Z,12.45
2023-02-17T22:27:07.085Z,12.02
2023-02-17T22:29:34.693Z,12.22
2023-02-17T22:32:02.506Z,12.47
2023-02-17T22:34:30.263Z,12.29
2023-02-17T22:36:57.907Z,12.81
2023-02-17T22:39:25.604Z,12.26
2023-02-17T22:41:53.245Z,12.90
2023-02-17T22:44:22.290Z,12.45
2023-02-17T22:46:49.883Z,12.29
2023-02-17T22:49:17.576Z,12.55
2023-02-17T22:51:45.299Z,12.04
2023-02-17T22:54:13.042Z,11.79
2023-02-17T22:56:40.690Z,12.16
2023-02-17T22:59:08.334Z,11.94
2023-02-17T23:01:37.417Z,11.99
2023-02-17T23:04:05.617Z,12.18
2023-02-17T23:06:34.580Z,11.29
2023-02-17T23:09:02.359Z,11.56
2023-02-17T23:11:48.533Z,12.51
2023-02-17T23:14:17.237Z,11.90
2023-02-17T23:16:46.328Z,12.85
2023-02-17T23:19:15.188Z,11.36
2023-02-17T23:21:43.869Z,12.32
2023-02-17T23:24:11.505Z,10.60
2023-02-17T23:26:39.349Z,12.18
2023-02-17T23:29:07.062Z,11.04
2023-02-17T23:31:34.869Z,11.48
2023-02-17T23:34:03.919Z,12.28
2023-02-17T23:36:31.634Z,12.74
2023-02-17T23:38:59.438Z,12.05
2023-02-17T23:41:27.348Z,12.11
2023-02-17T23:43:54.983Z,11.63
2023-02-17T23:46:22.750Z,12.30
2023-02-17T23:48:50.460Z,11.89
2023-02-17T23:51:19.747Z,11.54
2023-02-17T23:53:47.698Z,11.54
2023-02-17T23:56:16.192Z,12.42
2023-02-17T23:58:43.857Z,11.51
